Time;durP1;ratioP1;P1;durP2;ratioP2;P2;SDS_P1;SDS_P2;PMS_P1;PMS_P2;Temp;Humidity;BMP_temperature;BMP_pressure;BME280_temperature;BME280_humidity;BME280_pressure;Samples;Min_cycle;Max_cycle;Signal;HPM_P1;HPM_P2
2022/08/19 00:01:24;;;;;;;;;;;;;;;22.00;35.69;100886.25;5053256;28;19933;-57
2022/08/19 00:03:57;;;;;;;;;;;;;;;21.97;36.11;100895.03;5047084;28;19976;-57
2022/08/19 00:06:25;;;;;;;;;;;;;;;21.92;36.14;100883.66;5049350;28;20650;-59
2022/08/19 00:08:53;;;;;;;;;;;;;;;21.88;35.81;100894.31;5047618;28;20444;-59
2022/08/19 00:11:20;;;;;;;;;;;;;;;21.84;36.41;100893.03;5050347;28;19935;-61
2022/08/19 00:13:54;;;;;;;;;;;;;;;21.80;36.13;100903.72;5047384;28;20397;-58
2022/08/19 00:16:23;;;;;;;;;;;;;;;21.77;36.36;100901.34;5041074;28;20416;-58
2022/08/19 00:18:54;;;;;;;;;;;;;;;21.74;36.55;100895.34;5046422;28;19970;-57
2022/08/19 00:21:23;;;;;;;;;;;;;;;21.71;36.58;100898.53;5048051;28;19972;-59
2022/08/19 00:23:51;;;;;;;;;;;;;;;21.68;36.66;100897.03;5047674;28;20445;-58
2022/08/19 00:26:19;;;;;;;;;;;;;;;21.65;36.43;100883.50;5043289;28;19929;-56
2022/08/19 00:28:47;;;;;;;;;;;;;;;21.64;36.43;100886.50;5049173;28;19925;-58
2022/08/19 00:31:16;;;;;;;;;;;;;;;21.61;36.68;100889.69;5048781;28;19929;-58
2022/08/19 00:33:44;;;;;;;;;;;;;;;21.59;36.83;100889.03;5047579;28;19964;-58
2022/08/19 00:36:12;;;;;;;;;;;;;;;21.56;36.36;100884.75;5045900;28;19932;-58
2022/08/19 00:38:43;;;;;;;;;;;;;;;21.53;36.48;100879.56;5044883;28;19928;-60
2022/08/19 00:41:14;;;;;;;;;;;;;;;21.51;36.46;100888.16;5045753;28;20003;-56
2022/08/19 00:43:42;;;;;;;;;;;;;;;21.48;36.85;100887.69;5044793;28;19928;-58
2022/08/19 00:46:09;;;;;;;;;;;;;;;21.46;36.88;100890.69;5046927;28;19924;-60
2022/08/19 00:48:39;;;;;;;;;;;;;;;21.43;37.00;100890.25;5045912;28;19938;-60
2022/08/19 00:51:06;;;;;;;;;;;;;;;21.40;37.11;100885.94;5046991;28;19929;-60
2022/08/19 00:53:35;;;;;;;;;;;;;;;21.38;36.59;100881.63;5046483;28;20397;-58
2022/08/19 00:56:05;;;;;;;;;;;;;;;21.35;37.03;100880.13;5045419;28;21357;-59
2022/08/19 00:58:35;;;;;;;;;;;;;;;21.32;37.18;100874.97;5044243;28;20028;-60
2022/08/19 01:01:03;;;;;;;;;;;;;;;21.30;36.79;100867.88;5044886;28;19932;-60
2022/08/19 01:03:31;;;;;;;;;;;;;;;21.28;37.05;100878.34;5045836;28;19925;-60
2022/08/19 01:06:20;;;;;;;;;;;;;;;21.24;37.45;100883.44;5047587;28;19931;-60
2022/08/19 01:08:48;;;;;;;;;;;;;;;21.22;37.46;100885.56;5046180;28;19933;-60
2022/08/19 01:11:16;;;;;;;;;;;;;;;21.20;37.08;100884.03;5048545;28;19925;-57
2022/08/19 01:13:45;;;;;;;;;;;;;;;21.17;37.01;100884.47;5045243;28;20014;-58
2022/08/19 01:16:18;;;;;;;;;;;;;;;21.15;37.09;100881.88;5048156;28;20689;-59
2022/08/19 01:18:46;;;;;;;;;;;;;;;21.12;37.15;100880.34;5047371;28;19928;-57
2022/08/19 01:21:18;;;;;;;;;;;;;;;21.09;37.39;100883.56;5042823;28;19991;-55
2022/08/19 01:23:48;;;;;;;;;;;;;;;21.07;37.05;100888.47;5046784;28;19929;-57
2022/08/19 01:26:17;;;;;;;;;;;;;;;21.04;37.37;100879.66;5045206;28;19935;-56
2022/08/19 01:28:46;;;;;;;;;;;;;;;21.00;37.34;100889.47;5049797;28;19928;-56
2022/08/19 01:31:15;;;;;;;;;;;;;;;20.97;37.26;100892.66;5045902;28;19925;-56
2022/08/19 01:33:56;;;;;;;;;;;;;;;20.93;37.61;100874.66;5042490;28;19929;-57
2022/08/19 01:36:25;;;;;;;;;;;;;;;20.90;37.49;100877.84;5045476;28;20007;-55
2022/08/19 01:38:55;;;;;;;;;;;;;;;20.87;37.36;100875.44;5095175;23;19930;-75
2022/08/19 01:41:23;;;;;;;;;;;;;;;20.84;37.61;100873.09;5079087;28;19943;-75
2022/08/19 01:43:51;;;;;;;;;;;;;;;20.81;37.63;100874.34;5066877;28;20019;-75
2022/08/19 01:46:39;;;;;;;;;;;;;;;20.78;37.70;100874.72;5065586;28;19928;-75
2022/08/19 01:49:08;;;;;;;;;;;;;;;20.75;37.65;100875.16;5068136;28;19960;-75
2022/08/19 01:51:38;;;;;;;;;;;;;;;20.71;37.64;100884.94;5060085;28;19928;-74
2022/08/19 01:54:09;;;;;;;;;;;;;;;20.69;37.62;100875.97;5082343;28;20383;-74
2022/08/19 01:56:38;;;;;;;;;;;;;;;20.66;38.19;100873.56;5069590;28;20405;-74
2022/08/19 01:59:09;;;;;;;;;;;;;;;20.62;37.70;100861.09;5066901;28;19932;-74
2022/08/19 02:01:37;;;;;;;;;;;;;;;20.59;38.07;100865.16;5067794;28;19933;-74
2022/08/19 02:04:05;;;;;;;;;;;;;;;20.57;37.88;100858.03;5063000;28;19939;-74
2022/08/19 02:06:33;;;;;;;;;;;;;;;20.53;37.77;100860.34;5045103;28;19939;-73
2022/08/19 02:09:02;;;;;;;;;;;;;;;20.52;38.01;100860.56;5044946;28;20338;-73
2022/08/19 02:11:33;;;;;;;;;;;;;;;20.50;38.02;100857.13;5049367;28;19933;-73
2022/08/19 02:14:02;;;;;;;;;;;;;;;20.47;38.10;100858.38;5047172;28;19925;-74
2022/08/19 02:16:31;;;;;;;;;;;;;;;20.46;38.45;100866.91;5049060;28;19929;-74
2022/08/19 02:19:00;;;;;;;;;;;;;;;20.45;38.43;100868.81;5058594;28;19925;-74
2022/08/19 02:21:29;;;;;;;;;;;;;;;20.43;38.50;100868.19;5042147;28;19936;-74
2022/08/19 02:23:57;;;;;;;;;;;;;;;20.43;38.56;100867.31;5042949;28;19928;-74
2022/08/19 02:26:27;;;;;;;;;;;;;;;20.41;38.20;100864.75;5050233;28;19929;-73
2022/08/19 02:28:57;;;;;;;;;;;;;;;20.39;38.13;100866.84;5046266;28;19991;-74
2022/08/19 02:31:27;;;;;;;;;;;;;;;20.37;38.29;100866.19;5058220;28;20367;-74
2022/08/19 02:33:56;;;;;;;;;;;;;;;20.35;38.35;100868.31;5044642;28;19924;-73
2022/08/19 02:36:24;;;;;;;;;;;;;;;20.33;38.63;100862.97;5050296;28;19925;-73
2022/08/19 02:38:51;;;;;;;;;;;;;;;20.32;38.38;100871.50;5060486;28;20352;-74
2022/08/19 02:41:23;;;;;;;;;;;;;;;20.31;38.64;100878.09;5046128;28;20268;-73
2022/08/19 02:43:54;;;;;;;;;;;;;;;20.29;38.69;100880.22;5048524;28;19979;-74
2022/08/19 02:46:44;;;;;;;;;;;;;;;20.26;38.52;100892.59;5047509;28;19929;-74
2022/08/19 02:49:15;;;;;;;;;;;;;;;20.26;38.65;100891.75;5047274;28;19978;-74
2022/08/19 02:51:45;;;;;;;;;;;;;;;20.24;38.96;100896.63;5052508;28;20017;-74
2022/08/19 02:54:14;;;;;;;;;;;;;;;20.23;38.44;100897.69;5047405;28;19938;-74
2022/08/19 02:56:42;;;;;;;;;;;;;;;20.21;38.66;100895.09;5052072;28;19932;-74
2022/08/19 02:59:11;;;;;;;;;;;;;;;20.19;38.66;100894.47;5050717;28;19932;-74
2022/08/19 03:01:41;;;;;;;;;;;;;;;20.18;38.93;100898.28;5048651;28;19933;-74
2022/08/19 03:04:13;;;;;;;;;;;;;;;20.15;38.94;100895.88;5045176;28;19929;-74
2022/08/19 03:06:42;;;;;;;;;;;;;;;20.13;38.78;100894.34;5050044;28;19959;-74
2022/08/19 03:09:11;;;;;;;;;;;;;;;20.10;39.07;100901.19;5042912;28;20383;-74
2022/08/19 03:11:39;;;;;;;;;;;;;;;20.07;38.61;100892.38;5060600;28;19970;-74
2022/08/19 03:14:08;;;;;;;;;;;;;;;20.05;39.13;100894.47;5045048;28;20585;-74
2022/08/19 03:16:41;;;;;;;;;;;;;;;20.02;39.18;100887.41;5050070;28;19925;-74
2022/08/19 03:19:11;;;;;;;;;;;;;;;19.99;39.19;100888.66;5046638;28;19936;-74
2022/08/19 03:21:39;;;;;;;;;;;;;;;19.97;38.88;100887.13;5048360;28;19931;-74
2022/08/19 03:24:08;;;;;;;;;;;;;;;19.96;39.30;100890.94;5049190;28;19924;-74
2022/08/19 03:26:39;;;;;;;;;;;;;;;19.93;38.89;100881.13;5051444;28;19936;-74
2022/08/19 03:29:10;;;;;;;;;;;;;;;19.90;38.93;100889.78;5044322;28;19932;-73
2022/08/19 03:31:40;;;;;;;;;;;;;;;19.87;38.92;100884.63;5050503;28;20383;-74
2022/08/19 03:34:26;;;;;;;;;;;;;;;19.86;39.52;100885.69;5048746;28;19935;-74
2022/08/19 03:36:54;;;;;;;;;;;;;;;19.83;39.15;100897.19;5052621;28;19953;-74
2022/08/19 03:39:23;;;;;;;;;;;;;;;19.82;39.01;100905.69;5050040;28;19936;-73
2022/08/19 03:41:52;;;;;;;;;;;;;;;19.82;39.07;100901.00;5047853;28;19932;-74
2022/08/19 03:44:42;;;;;;;;;;;;;;;19.80;39.24;100896.69;5046342;28;19929;-74
2022/08/19 03:47:15;;;;;;;;;;;;;;;19.79;39.74;100901.38;5041913;28;19964;-74
2022/08/19 03:49:46;;;;;;;;;;;;;;;19.77;39.32;100900.75;5046951;28;20633;-73
2022/08/19 03:52:15;;;;;;;;;;;;;;;19.76;39.36;100904.56;5050378;28;19929;-74
2022/08/19 03:54:43;;;;;;;;;;;;;;;19.76;39.59;100909.25;5044034;28;19947;-73
2022/08/19 03:57:11;;;;;;;;;;;;;;;19.74;39.32;100909.44;5048691;28;19940;-74
2022/08/19 03:59:39;;;;;;;;;;;;;;;19.72;39.81;100914.31;5065736;28;19974;-73
2022/08/19 04:02:09;;;;;;;;;;;;;;;19.71;39.94;100909.81;5049933;28;19924;-74
2022/08/19 04:04:38;;;;;;;;;;;;;;;19.69;39.87;100903.63;5047720;28;19925;-73
2022/08/19 04:07:08;;;;;;;;;;;;;;;19.69;39.66;100911.09;5043649;28;19932;-74
2022/08/19 04:09:36;;;;;;;;;;;;;;;19.67;39.93;100910.41;5049793;28;20004;-74
2022/08/19 04:12:05;;;;;;;;;;;;;;;19.64;39.87;100911.66;5049553;28;19994;-74
2022/08/19 04:14:33;;;;;;;;;;;;;;;19.64;39.86;100911.66;5050524;28;20011;-74
2022/08/19 04:17:04;;;;;;;;;;;;;;;19.62;39.40;100905.47;5050402;28;19928;-74
2022/08/19 04:19:33;;;;;;;;;;;;;;;19.59;39.72;100903.91;5048365;28;19982;-74
2022/08/19 04:22:02;;;;;;;;;;;;;;;19.57;40.04;100903.25;5045350;28;19928;-74
2022/08/19 04:24:31;;;;;;;;;;;;;;;19.57;39.92;100913.47;5036088;28;19940;-74
2022/08/19 04:27:00;;;;;;;;;;;;;;;19.54;39.81;100908.34;5046612;28;19924;-74
2022/08/19 04:29:29;;;;;;;;;;;;;;;19.52;39.75;100916.84;5049117;28;19980;-73
2022/08/19 04:31:58;;;;;;;;;;;;;;;19.51;39.80;100917.03;5046848;28;19924;-73
2022/08/19 04:34:27;;;;;;;;;;;;;;;19.49;40.30;100917.22;5042293;28;19931;-73
2022/08/19 04:36:56;;;;;;;;;;;;;;;19.47;40.06;100916.53;5050727;28;19935;-74
2022/08/19 04:42:38;;;;;;;;;;;;;;;19.46;40.25;100913.97;5047083;28;20011;-74
2022/08/19 04:45:03;;;;;;;;;;;;;;;19.43;39.96;100912.44;5046648;28;19939;-74
2022/08/19 04:47:32;;;;;;;;;;;;;;;19.42;40.01;100916.25;5045435;28;20579;-74
2022/08/19 04:50:20;;;;;;;;;;;;;;;19.40;40.64;100918.34;5038608;28;19932;-74
2022/08/19 04:52:51;;;;;;;;;;;;;;;19.40;40.20;100926.69;5041910;28;19982;-74
2022/08/19 04:55:19;;;;;;;;;;;;;;;19.40;40.72;100929.47;5047175;28;20431;-74
2022/08/19 04:57:50;;;;;;;;;;;;;;;19.40;40.77;100929.47;5049196;28;20193;-74
2022/08/19 05:00:18;;;;;;;;;;;;;;;19.40;40.82;100939.69;5042268;28;19937;-75
2022/08/19 05:02:46;;;;;;;;;;;;;;;19.40;40.65;100940.56;5040846;28;19936;-74
2022/08/19 05:05:15;;;;;;;;;;;;;;;19.39;41.00;100947.16;5046507;28;20321;-74
2022/08/19 05:07:43;;;;;;;;;;;;;;;19.40;40.65;100948.88;5038877;28;19936;-74
2022/08/19 05:10:11;;;;;;;;;;;;;;;19.41;41.12;100942.28;5048710;28;19928;-74
2022/08/19 05:12:39;;;;;;;;;;;;;;;19.42;40.93;100957.03;5049787;28;19931;-74
2022/08/19 05:15:09;;;;;;;;;;;;;;;19.43;40.88;100958.75;5063631;28;20330;-74
2022/08/19 05:17:37;;;;;;;;;;;;;;;19.45;41.27;100963.09;5046378;28;19933;-74
2022/08/19 05:22:52;;;;;;;;;;;;;;;19.48;40.85;100967.38;5062865;28;19975;-74
2022/08/19 05:25:22;;;;;;;;;;;;;;;19.51;41.38;100967.00;5046569;28;19963;-74
2022/08/19 05:27:50;;;;;;;;;;;;;;;19.53;41.16;100964.91;5043655;28;19928;-75
2022/08/19 05:30:19;;;;;;;;;;;;;;;19.56;41.55;100970.91;5046984;28;20007;-74
2022/08/19 05:33:09;;;;;;;;;;;;;;;19.58;41.25;100976.28;5045770;28;19932;-75
2022/08/19 05:35:37;;;;;;;;;;;;;;;19.60;41.15;100983.38;5038411;28;19924;-75
2022/08/19 05:38:07;;;;;;;;;;;;;;;19.65;41.05;100980.03;5046431;28;19925;-75
2022/08/19 05:40:35;;;;;;;;;;;;;;;19.69;41.34;100986.06;5046905;28;20016;-75
2022/08/19 05:43:04;;;;;;;;;;;;;;;19.73;41.38;100976.28;5050021;28;20359;-75
2022/08/19 05:45:38;;;;;;;;;;;;;;;19.75;41.15;100972.28;5048431;28;20237;-75
2022/08/19 05:48:06;;;;;;;;;;;;;;;19.80;41.26;100980.00;5044183;28;19951;-75
2022/08/19 05:50:36;;;;;;;;;;;;;;;19.83;41.52;100983.28;5045823;28;19924;-74
2022/08/19 05:53:04;;;;;;;;;;;;;;;19.88;41.14;100979.91;5041439;28;19925;-75
2022/08/19 05:55:32;;;;;;;;;;;;;;;19.92;41.53;100978.53;5048610;28;19932;-74
2022/08/19 05:58:01;;;;;;;;;;;;;;;19.96;41.21;100971.50;5042324;28;19929;-75
2022/08/19 06:00:30;;;;;;;;;;;;;;;20.00;41.62;100968.16;5045113;28;19929;-75
2022/08/19 06:03:02;;;;;;;;;;;;;;;20.06;41.66;100972.06;5047540;28;19932;-77
2022/08/19 06:05:40;;;;;;;;;;;;;;;20.11;41.52;100969.59;5042832;28;20272;-76
2022/08/19 06:08:19;;;;;;;;;;;;;;;20.18;41.49;100964.97;5042313;28;19925;-76
2022/08/19 06:11:13;;;;;;;;;;;;;;;20.25;41.33;100959.50;5041039;28;20039;-76
2022/08/19 06:13:41;;;;;;;;;;;;;;;20.32;41.30;100964.06;5044434;28;19929;-74
2022/08/19 06:16:09;;;;;;;;;;;;;;;20.40;41.43;100963.09;5057106;28;20300;-75
2022/08/19 06:18:39;;;;;;;;;;;;;;;20.47;41.52;100966.81;5045470;28;19929;-74
2022/08/19 06:21:07;;;;;;;;;;;;;;;20.55;41.34;100968.59;5050480;28;20440;-75
2022/08/19 06:23:35;;;;;;;;;;;;;;;20.62;41.58;100969.56;5048335;28;19928;-76
2022/08/19 06:26:04;;;;;;;;;;;;;;;20.69;41.44;100973.28;5048187;28;20011;-75
2022/08/19 06:28:32;;;;;;;;;;;;;;;20.74;41.60;100971.63;5042004;28;20295;-75
2022/08/19 06:31:06;;;;;;;;;;;;;;;20.80;41.14;100963.53;5045910;28;19932;-75
2022/08/19 06:33:34;;;;;;;;;;;;;;;20.83;41.39;100954.81;5051746;28;19956;-75
2022/08/19 06:36:04;;;;;;;;;;;;;;;20.86;41.18;100958.03;5060465;28;19935;-75
2022/08/19 06:38:33;;;;;;;;;;;;;;;20.89;41.05;100959.56;5048846;28;20387;-75
2022/08/19 06:41:02;;;;;;;;;;;;;;;20.90;41.24;100972.41;5052260;28;19932;-74
2022/08/19 06:43:35;;;;;;;;;;;;;;;20.91;40.99;100980.56;5049718;28;19932;-75
2022/08/19 06:46:13;;;;;;;;;;;;;;;20.91;41.29;100980.56;5047001;28;19959;-75
2022/08/19 06:48:41;;;;;;;;;;;;;;;20.91;41.16;100979.72;5048854;28;21075;-75
2022/08/19 06:51:18;;;;;;;;;;;;;;;20.91;41.09;100974.16;5051089;28;20016;-75
2022/08/19 06:53:46;;;;;;;;;;;;;;;20.90;40.81;100970.50;5049402;28;20019;-76
2022/08/19 06:56:16;;;;;;;;;;;;;;;20.89;41.15;100966.00;5044899;28;19925;-74
2022/08/19 06:58:46;;;;;;;;;;;;;;;20.89;40.96;100974.34;5045911;28;19962;-75
2022/08/19 07:01:14;;;;;;;;;;;;;;;20.89;40.79;100976.25;5046354;28;19959;-81
2022/08/19 07:03:42;;;;;;;;;;;;;;;20.88;41.07;100978.19;5058617;28;19924;-80
2022/08/19 07:06:11;;;;;;;;;;;;;;;20.87;40.95;100972.81;5058372;28;19925;-79
2022/08/19 07:09:01;;;;;;;;;;;;;;;20.88;41.34;100971.75;5051039;28;20407;-78
2022/08/19 07:11:30;;;;;;;;;;;;;;;20.90;41.11;100975.19;5044875;28;19936;-78
2022/08/19 07:14:01;;;;;;;;;;;;;;;20.90;41.14;100975.19;5040187;28;19955;-79
2022/08/19 07:16:31;;;;;;;;;;;;;;;20.92;41.17;100984.22;5048414;28;20391;-81
2022/08/19 07:18:59;;;;;;;;;;;;;;;20.97;41.07;100987.25;5045853;28;19960;-79
2022/08/19 07:21:43;;;;;;;;;;;;;;;21.00;40.95;100998.00;5056940;28;19987;-79
2022/08/19 07:24:13;;;;;;;;;;;;;;;21.04;41.24;100999.28;5046942;28;20277;-79
2022/08/19 07:26:42;;;;;;;;;;;;;;;21.07;41.01;101002.56;5047975;28;19924;-79
2022/08/19 07:29:10;;;;;;;;;;;;;;;21.11;40.95;101012.22;5053542;28;20415;-79
2022/08/19 07:31:40;;;;;;;;;;;;;;;21.14;41.07;101002.59;5043457;28;19940;-78
2022/08/19 07:34:11;;;;;;;;;;;;;;;21.18;41.18;101017.00;5045870;28;20149;-79
2022/08/19 07:36:41;;;;;;;;;;;;;;;21.21;41.25;101013.78;5049088;28;20449;-80
2022/08/19 07:39:11;;;;;;;;;;;;;;;21.23;41.32;101011.69;5041777;28;20306;-81
2022/08/19 07:41:41;;;;;;;;;;;;;;;21.27;41.34;101021.41;5049399;28;19971;-80
2022/08/19 07:44:10;;;;;;;;;;;;;;;21.29;41.16;101016.47;5045089;28;19932;-80
2022/08/19 07:46:39;;;;;;;;;;;;;;;21.31;41.16;101023.56;5049657;28;20410;-81
2022/08/19 07:49:08;;;;;;;;;;;;;;;21.35;40.91;101027.69;5048162;28;19929;-80
2022/08/19 07:51:36;;;;;;;;;;;;;;;21.39;41.33;101033.69;5052295;28;20043;-81
2022/08/19 07:54:04;;;;;;;;;;;;;;;21.43;41.04;101040.59;5049948;28;19960;-81
2022/08/19 07:56:33;;;;;;;;;;;;;;;21.48;41.18;101043.63;5049452;28;20368;-80
2022/08/19 07:59:02;;;;;;;;;;;;;;;21.54;41.40;101037.25;5047366;28;19972;-81
2022/08/19 08:01:30;;;;;;;;;;;;;;;21.64;41.48;101043.31;5046748;28;19990;-81
2022/08/19 08:09:30;;;;;;;;;;;;;;;21.99;41.34;101041.47;5047111;28;19928;-78
2022/08/19 08:12:00;;;;;;;;;;;;;;;22.13;41.62;101042.38;5049937;28;19924;-80
2022/08/19 08:14:39;;;;;;;;;;;;;;;22.28;41.56;101043.09;5044521;28;19933;-79
2022/08/19 08:17:12;;;;;;;;;;;;;;;22.43;41.52;101045.75;5044763;28;19924;-79
2022/08/19 08:19:41;;;;;;;;;;;;;;;22.56;41.09;101046.72;5047349;28;20019;-83
2022/08/19 08:23:21;;;;;;;;;;;;;;;22.70;41.31;101038.38;5047136;28;20028;-80
2022/08/19 08:24:59;;;;;;;;;;;;;;;22.85;40.99;101037.13;5045016;28;19970;-80
2022/08/19 08:27:30;;;;;;;;;;;;;;;22.98;40.89;101045.56;5063234;28;20437;-80
2022/08/19 08:30:01;;;;;;;;;;;;;;;23.12;40.65;101046.41;5040921;28;19924;-80
2022/08/19 08:32:30;;;;;;;;;;;;;;;23.25;40.77;101057.63;5039108;28;19960;-81
2022/08/19 08:34:59;;;;;;;;;;;;;;;23.36;40.66;101050.56;5043776;28;19925;-80
2022/08/19 08:37:27;;;;;;;;;;;;;;;23.46;40.54;101053.78;5050278;28;19930;-80
2022/08/19 08:39:55;;;;;;;;;;;;;;;23.57;40.10;101055.09;5050054;28;20016;-80
2022/08/19 08:42:28;;;;;;;;;;;;;;;23.64;40.29;101062.38;5037301;28;19929;-80
2022/08/19 08:44:59;;;;;;;;;;;;;;;23.74;40.00;101054.41;5047971;28;19933;-80
2022/08/19 08:47:31;;;;;;;;;;;;;;;23.83;39.90;101057.00;5032669;28;19932;-80
2022/08/19 08:50:03;;;;;;;;;;;;;;;23.93;39.78;101054.63;5049229;28;19932;-81
2022/08/19 08:52:35;;;;;;;;;;;;;;;24.03;39.98;101055.03;5049121;28;20031;-81
2022/08/19 08:55:05;;;;;;;;;;;;;;;24.12;39.73;101039.75;5036760;28;19932;-81
2022/08/19 08:57:39;;;;;;;;;;;;;;;24.22;39.66;101042.97;5048758;28;20477;-81
2022/08/19 09:00:11;;;;;;;;;;;;;;;24.33;39.61;101050.66;5034831;28;19929;-80
2022/08/19 09:02:43;;;;;;;;;;;;;;;24.43;39.31;101051.06;5050038;28;19924;-80
2022/08/19 09:05:18;;;;;;;;;;;;;;;24.51;39.15;101053.63;5048697;28;20379;-80
2022/08/19 09:07:55;;;;;;;;;;;;;;;24.61;39.16;101046.69;5048069;28;19936;-81
2022/08/19 09:10:29;;;;;;;;;;;;;;;24.68;38.68;101047.53;5044527;28;19925;-81
2022/08/19 09:13:02;;;;;;;;;;;;;;;24.73;38.72;101051.34;5035251;28;19928;-81
2022/08/19 09:15:40;;;;;;;;;;;;;;;24.78;38.48;101042.31;5054614;28;19935;-81
2022/08/19 09:18:09;;;;;;;;;;;;;;;24.82;38.36;101044.41;5050325;28;20068;-79
2022/08/19 09:20:47;;;;;;;;;;;;;;;24.87;38.26;101040.97;5042281;28;19960;-79
2022/08/19 09:23:15;;;;;;;;;;;;;;;24.89;38.21;101036.88;5027841;28;19932;-80
2022/08/19 09:25:44;;;;;;;;;;;;;;;24.93;37.92;101048.47;5044657;28;20124;-80
2022/08/19 09:28:11;;;;;;;;;;;;;;;24.97;37.91;101046.13;5044932;28;19925;-80
2022/08/19 09:30:49;;;;;;;;;;;;;;;25.01;37.63;101041.75;5037510;28;19951;-80
2022/08/19 09:33:22;;;;;;;;;;;;;;;25.05;37.67;101037.44;5042355;28;19925;-80
2022/08/19 09:35:50;;;;;;;;;;;;;;;25.10;37.48;101034.81;5034125;28;19925;-81
2022/08/19 09:38:20;;;;;;;;;;;;;;;25.15;37.57;101038.63;5036646;28;19925;-81
2022/08/19 09:40:48;;;;;;;;;;;;;;;25.23;37.37;101045.91;5037008;28;20361;-80
2022/08/19 09:43:17;;;;;;;;;;;;;;;25.29;37.31;101045.03;5038442;28;19931;-81
2022/08/19 09:46:00;;;;;;;;;;;;;;;25.37;37.29;101041.09;5049522;28;19974;-81
2022/08/19 09:48:30;;;;;;;;;;;;;;;25.44;37.18;101039.06;5047609;28;20019;-80
2022/08/19 09:51:03;;;;;;;;;;;;;;;25.50;36.93;101038.16;5049681;28;19925;-80
2022/08/19 09:53:32;;;;;;;;;;;;;;;25.58;37.04;101037.91;5041313;28;19933;-80
2022/08/19 09:56:00;;;;;;;;;;;;;;;25.66;36.94;101033.94;5043713;28;19963;-81
2022/08/19 09:58:31;;;;;;;;;;;;;;;25.72;36.85;101033.88;5055714;28;19925;-81
2022/08/19 10:01:00;;;;;;;;;;;;;;;25.80;36.82;101035.56;5037898;28;20330;-79
2022/08/19 10:03:31;;;;;;;;;;;;;;;25.88;36.79;101038.91;5039942;28;19939;-81
2022/08/19 10:06:01;;;;;;;;;;;;;;;25.97;36.82;101042.25;5032486;28;19925;-84
2022/08/19 10:08:30;;;;;;;;;;;;;;;26.06;36.40;101042.81;5049800;28;19928;-83
2022/08/19 10:10:59;;;;;;;;;;;;;;;26.16;36.61;101045.97;5054310;28;19929;-83
2022/08/19 10:13:47;;;;;;;;;;;;;;;26.27;36.46;101037.66;5035203;28;19929;-83
2022/08/19 10:16:17;;;;;;;;;;;;;;;26.37;36.17;101040.78;5046792;28;19955;-85
2022/08/19 10:18:47;;;;;;;;;;;;;;;26.50;36.41;101030.44;5047321;28;20038;-84
2022/08/19 10:21:17;;;;;;;;;;;;;;;26.62;36.24;101039.84;5049280;28;20036;-82
2022/08/19 10:23:47;;;;;;;;;;;;;;;26.73;36.03;101037.06;5050619;28;19932;-83
2022/08/19 10:26:17;;;;;;;;;;;;;;;26.85;35.86;101027.84;5045362;28;19925;-82
2022/08/19 10:28:46;;;;;;;;;;;;;;;26.95;35.62;101019.72;5041188;28;19947;-82
2022/08/19 10:31:14;;;;;;;;;;;;;;;27.04;35.37;101012.63;5044801;28;19933;-81
2022/08/19 10:33:48;;;;;;;;;;;;;;;27.11;35.33;101014.28;5048186;28;20467;-82
2022/08/19 10:36:22;;;;;;;;;;;;;;;27.20;35.08;101019.56;5044466;28;19932;-82
2022/08/19 10:38:52;;;;;;;;;;;;;;;27.25;35.08;101014.94;5073312;28;19925;-83
2022/08/19 10:41:24;;;;;;;;;;;;;;;27.31;35.14;101018.72;5050284;28;20006;-80
2022/08/19 10:43:54;;;;;;;;;;;;;;;27.36;34.66;101019.72;5042651;28;20004;-82
2022/08/19 10:46:23;;;;;;;;;;;;;;;27.42;34.78;101020.72;5043897;28;19932;-80
2022/08/19 10:48:53;;;;;;;;;;;;;;;27.45;34.46;101018.25;5048893;28;19925;-80
2022/08/19 10:54:15;;;;;;;;;;;;;;;27.53;34.47;101022.69;5040808;28;19925;-80
2022/08/19 10:56:51;;;;;;;;;;;;;;;27.54;34.19;101026.31;5037062;28;19933;-81
2022/08/19 10:59:21;;;;;;;;;;;;;;;27.55;34.08;101019.59;5040865;28;20291;-80
2022/08/19 11:01:54;;;;;;;;;;;;;;;27.55;34.05;101026.09;5038183;28;20621;-80
2022/08/19 11:04:25;;;;;;;;;;;;;;;27.56;33.77;101021.31;5051267;28;19997;-80
2022/08/19 11:06:56;;;;;;;;;;;;;;;27.55;33.85;101020.47;5047701;28;19940;-81
2022/08/19 11:09:26;;;;;;;;;;;;;;;27.57;33.83;101020.22;5044493;28;19929;-81
2022/08/19 11:12:01;;;;;;;;;;;;;;;27.57;33.61;101015.47;5048164;28;19955;-81
2022/08/19 11:14:32;;;;;;;;;;;;;;;27.58;33.38;101014.38;5045335;28;19957;-82
2022/08/19 11:17:01;;;;;;;;;;;;;;;27.58;33.55;101014.38;5041285;28;19968;-81
2022/08/19 11:19:33;;;;;;;;;;;;;;;27.58;33.17;101014.38;5043540;28;19925;-81
2022/08/19 11:22:02;;;;;;;;;;;;;;;27.59;33.48;101012.41;5047107;28;19924;-78
2022/08/19 11:24:31;;;;;;;;;;;;;;;27.59;33.23;101013.28;5045452;28;19957;-80
2022/08/19 11:27:04;;;;;;;;;;;;;;;27.60;33.22;101012.19;5047387;28;19928;-80
2022/08/19 11:29:34;;;;;;;;;;;;;;;27.63;33.38;101011.66;5056048;28;19925;-80
2022/08/19 11:32:05;;;;;;;;;;;;;;;27.67;33.35;101017.69;5048505;28;19933;-80
2022/08/19 11:34:35;;;;;;;;;;;;;;;27.71;32.97;101016.09;5045324;28;19926;-79
2022/08/19 11:37:05;;;;;;;;;;;;;;;27.74;33.17;101007.19;5033289;28;20020;-80
2022/08/19 11:39:35;;;;;;;;;;;;;;;27.79;33.09;101001.69;5045981;28;19948;-80
2022/08/19 11:42:54;;;;;;;;;;;;;;;27.84;33.24;101001.81;5044683;28;19932;-80
2022/08/19 11:44:54;;;;;;;;;;;;;;;27.88;33.11;101001.06;5030261;28;19929;-79
2022/08/19 11:47:23;;;;;;;;;;;;;;;27.94;32.68;100987.13;5046811;28;19928;-80
2022/08/19 11:49:53;;;;;;;;;;;;;;;27.99;32.97;100988.09;5042214;28;19971;-79
2022/08/19 11:52:21;;;;;;;;;;;;;;;28.04;32.41;100985.38;5055060;28;19951;-80
2022/08/19 11:54:49;;;;;;;;;;;;;;;28.10;33.07;100992.00;5057350;28;20164;-80
2022/08/19 11:57:19;;;;;;;;;;;;;;;28.16;32.55;100994.66;5042086;28;19925;-79
2022/08/19 11:59:51;;;;;;;;;;;;;;;28.23;32.32;100995.41;5051818;28;20000;-80
2022/08/19 12:02:19;;;;;;;;;;;;;;;28.30;32.65;101000.03;5045699;28;19932;-79
2022/08/19 12:04:47;;;;;;;;;;;;;;;28.37;32.16;100997.94;5045939;28;19925;-79
2022/08/19 12:07:17;;;;;;;;;;;;;;;28.43;32.12;100980.94;5047496;28;20378;-80
2022/08/19 12:09:46;;;;;;;;;;;;;;;28.51;31.72;100993.75;5047013;28;19975;-81
2022/08/19 12:12:16;;;;;;;;;;;;;;;28.57;31.75;100993.59;5039254;28;20003;-80
2022/08/19 12:14:44;;;;;;;;;;;;;;;28.64;31.51;100987.81;5049083;28;20422;-80
2022/08/19 12:17:13;;;;;;;;;;;;;;;28.70;31.84;100980.31;5043111;28;19932;-81
2022/08/19 12:19:41;;;;;;;;;;;;;;;28.77;31.69;100981.06;5044915;28;19925;-80
2022/08/19 12:22:09;;;;;;;;;;;;;;;28.83;31.30;100974.41;5048993;28;19933;-80
2022/08/19 12:24:39;;;;;;;;;;;;;;;28.88;31.47;100975.34;5050821;28;19975;-80
2022/08/19 12:27:07;;;;;;;;;;;;;;;28.94;31.53;100968.69;5047804;28;20307;-79
2022/08/19 12:29:40;;;;;;;;;;;;;;;28.99;30.84;100967.97;5034154;28;20052;-80
2022/08/19 12:32:08;;;;;;;;;;;;;;;29.05;31.03;100968.88;5051880;28;19936;-80
2022/08/19 12:34:39;;;;;;;;;;;;;;;29.09;30.90;100968.16;5037441;28;19932;-80
2022/08/19 12:37:07;;;;;;;;;;;;;;;29.13;30.38;100968.47;5049126;28;19929;-79
2022/08/19 12:39:36;;;;;;;;;;;;;;;29.16;30.50;100960.38;5037938;28;19925;-80
2022/08/19 12:42:08;;;;;;;;;;;;;;;29.19;30.49;100961.81;5031094;28;19987;-80
2022/08/19 12:44:37;;;;;;;;;;;;;;;29.22;30.10;100962.16;5033664;28;19925;-79
2022/08/19 12:47:09;;;;;;;;;;;;;;;29.26;30.52;100954.91;5046847;28;20431;-80
2022/08/19 12:49:38;;;;;;;;;;;;;;;29.30;30.24;100961.75;5045222;28;19967;-80
2022/08/19 12:52:21;;;;;;;;;;;;;;;29.34;30.26;100962.13;5053787;28;20428;-80
2022/08/19 12:54:50;;;;;;;;;;;;;;;29.38;30.28;100963.31;5040711;28;20388;-80
2022/08/19 12:57:25;;;;;;;;;;;;;;;29.42;29.97;100958.00;5066767;28;19929;-80
2022/08/19 12:59:59;;;;;;;;;;;;;;;29.47;30.16;100961.75;5037345;28;20375;-79
2022/08/19 13:02:27;;;;;;;;;;;;;;;29.50;30.07;100949.97;5036943;28;19947;-79
2022/08/19 13:04:56;;;;;;;;;;;;;;;29.55;30.01;100952.00;5046912;28;19979;-80
2022/08/19 13:07:24;;;;;;;;;;;;;;;29.59;29.88;100958.84;5035568;28;20284;-80